Time;durP1;ratioP1;P1;durP2;ratioP2;P2;SDS_P1;SDS_P2;PMS_P1;PMS_P2;Temp;Humidity;BMP_temperature;BMP_pressure;BME280_temperature;BME280_humidity;BME280_pressure;Samples;Min_cycle;Max_cycle;Signal;HPM_P1;HPM_P2
2022/03/14 00:02:01;;;;;;;8.48;6.20;;;;;;;20.66;40.48;101655.72;20641889;27;97095;-75
2022/03/14 00:12:02;;;;;;;10.13;5.97;;;;;;;20.65;40.79;101669.81;20641162;28;98092;-75
2022/03/14 00:22:03;;;;;;;8.60;6.00;;;;;;;20.61;40.59;101677.00;20642353;27;96917;-75
2022/03/14 00:32:04;;;;;;;7.95;5.57;;;;;;;20.58;40.85;101676.31;20649045;28;99132;-76
2022/03/14 00:42:05;;;;;;;8.50;5.95;;;;;;;20.55;40.79;101677.34;20631716;28;99371;-75
2022/03/14 00:52:05;;;;;;;8.90;5.95;;;;;;;20.51;40.65;101680.22;20655181;28;97827;-75
2022/03/14 01:02:07;;;;;;;9.65;6.00;;;;;;;20.49;40.78;101688.22;20672600;28;98893;-75
2022/03/14 01:12:08;;;;;;;8.70;6.28;;;;;;;20.47;40.67;101677.78;20667645;28;98954;-75
2022/03/14 01:22:10;;;;;;;13.98;6.70;;;;;;;20.42;40.76;101682.44;20672351;28;99240;-76
2022/03/14 01:32:10;;;;;;;9.55;6.28;;;;;;;20.40;40.92;101684.28;20683405;27;99822;-75
2022/03/14 01:42:18;;;;;;;9.55;6.00;;;;;;;20.41;40.66;101693.03;20665389;27;97673;-75
2022/03/14 01:52:20;;;;;;;9.15;6.28;;;;;;;20.38;40.52;101707.19;20670508;27;98303;-76
2022/03/14 02:02:21;;;;;;;9.20;6.30;;;;;;;20.36;40.87;101714.34;20669015;28;97152;-75
2022/03/14 02:12:23;;;;;;;8.70;6.32;;;;;;;20.32;40.91;101720.66;20654293;28;97200;-75
2022/03/14 02:22:24;;;;;;;8.83;6.13;;;;;;;20.30;40.63;101739.19;20647911;27;97391;-75
2022/03/14 02:32:25;;;;;;;8.73;6.40;;;;;;;20.27;40.62;101738.47;20655760;28;98962;-75
2022/03/14 02:42:25;;;;;;;9.32;6.65;;;;;;;20.23;40.92;101734.31;20648950;28;98137;-75
2022/03/14 02:52:26;;;;;;;9.32;6.32;;;;;;;20.24;40.81;101739.50;20651965;27;97864;-75
2022/03/14 03:02:26;;;;;;;9.27;6.25;;;;;;;20.21;40.80;101757.22;20658252;28;97007;-75
2022/03/14 03:12:28;;;;;;;9.50;6.75;;;;;;;20.19;40.77;101757.31;20649978;28;97213;-75
2022/03/14 03:22:29;;;;;;;9.52;6.50;;;;;;;20.16;40.69;101760.06;20648952;27;99405;-75
2022/03/14 03:32:30;;;;;;;10.15;6.47;;;;;;;20.12;40.78;101763.81;20649256;28;97146;-75
2022/03/14 03:42:31;;;;;;;10.95;6.68;;;;;;;20.09;40.76;101780.59;20649035;28;97221;-75
2022/03/14 03:52:31;;;;;;;10.70;7.03;;;;;;;20.08;40.68;101788.53;20638580;28;97848;-76
2022/03/14 04:02:36;;;;;;;10.30;7.03;;;;;;;20.03;40.51;101791.41;20660051;27;98631;-75
2022/03/14 04:12:38;;;;;;;9.35;6.53;;;;;;;20.04;40.74;101798.34;20650992;28;99082;-75
2022/03/14 04:22:39;;;;;;;11.13;7.00;;;;;;;19.99;40.49;101801.25;20641123;28;100525;-75
2022/03/14 04:32:41;;;;;;;10.52;7.20;;;;;;;19.94;40.67;101811.09;20646498;27;101383;-75
2022/03/14 04:42:41;;;;;;;9.23;6.68;;;;;;;19.92;40.56;101822.63;20639807;27;98253;-76
2022/03/14 04:52:43;;;;;;;11.15;6.78;;;;;;;19.89;40.45;101828.06;20643754;28;98487;-76
2022/03/14 05:02:43;;;;;;;11.60;6.60;;;;;;;19.86;40.50;101842.19;20645483;28;97319;-76
2022/03/14 05:12:44;;;;;;;9.50;6.30;;;;;;;19.88;40.45;101852.63;20639604;28;100550;-76
2022/03/14 05:22:49;;;;;;;11.57;7.00;;;;;;;19.84;40.47;101857.19;20647719;28;97890;-76
2022/03/14 05:32:50;;;;;;;11.05;7.18;;;;;;;19.87;40.53;101871.97;20648286;27;97540;-75
2022/03/14 05:42:51;;;;;;;12.73;6.25;;;;;;;19.82;40.54;101875.63;20663214;27;96943;-76
2022/03/14 05:52:52;;;;;;;11.35;6.80;;;;;;;19.82;40.54;101880.91;20665845;28;98121;-76
2022/03/14 06:02:53;;;;;;;9.65;6.90;;;;;;;19.79;40.39;101899.44;20671400;28;100924;-76
2022/03/14 06:12:53;;;;;;;11.25;6.93;;;;;;;19.81;40.53;101923.88;20678228;28;97747;-76
2022/03/14 06:22:54;;;;;;;11.50;6.78;;;;;;;19.80;40.45;101926.59;20661612;28;98006;-75
2022/03/14 06:32:55;;;;;;;12.07;7.17;;;;;;;19.83;40.26;101924.69;20660169;28;97156;-78
2022/03/14 06:42:57;;;;;;;12.35;7.03;;;;;;;19.97;40.79;101939.78;20653394;28;100665;-77
2022/03/14 06:53:01;;;;;;;12.65;7.15;;;;;;;20.09;41.62;101943.63;20688742;28;97151;-78
2022/03/14 07:03:01;;;;;;;19.13;9.50;;;;;;;20.20;41.54;101956.25;20687757;28;100970;-78
2022/03/14 07:13:02;;;;;;;18.20;9.43;;;;;;;20.31;42.10;101956.59;20688116;27;97719;-79
2022/03/14 07:23:03;;;;;;;14.93;9.02;;;;;;;20.40;41.30;101965.81;20680013;28;98502;-78
2022/03/14 07:33:04;;;;;;;19.30;8.73;;;;;;;20.47;41.61;101963.75;20674820;28;97574;-76
2022/03/14 07:43:05;;;;;;;15.02;8.75;;;;;;;20.56;42.09;101971.16;20666301;28;98170;-75
2022/03/14 07:53:07;;;;;;;14.90;8.55;;;;;;;20.60;41.30;101964.84;20657483;28;98257;-76
2022/03/14 08:03:07;;;;;;;14.00;7.55;;;;;;;20.71;41.94;101971.31;20663294;28;97270;-75
2022/03/14 08:13:08;;;;;;;17.58;7.57;;;;;;;20.73;41.74;101970.34;20668211;28;99354;-78
2022/03/14 08:23:10;;;;;;;13.27;7.05;;;;;;;20.80;41.29;101989.34;20672416;28;101177;-77
2022/03/14 08:33:11;;;;;;;11.65;6.40;;;;;;;20.85;40.92;101989.94;20658265;28;96828;-75
2022/03/14 08:43:12;;;;;;;11.20;6.53;;;;;;;20.92;40.99;101990.47;20663589;28;100567;-77
2022/03/14 08:53:12;;;;;;;14.10;6.47;;;;;;;20.87;38.33;101990.72;20670674;28;96967;-76
2022/03/14 09:03:15;;;;;;;16.42;6.82;;;;;;;20.99;39.02;101989.22;20672207;27;100681;-78
2022/03/14 09:13:18;;;;;;;13.77;6.73;;;;;;;20.55;33.09;101981.75;20667689;28;98290;-76
2022/03/14 09:23:20;;;;;;;12.80;6.10;;;;;;;20.77;35.33;101985.03;20664124;27;97787;-79
2022/03/14 09:33:21;;;;;;;14.60;5.63;;;;;;;20.87;35.45;101972.31;20666354;28;98785;-76
2022/03/14 09:43:25;;;;;;;13.27;5.47;;;;;;;21.01;36.52;101978.63;20674252;28;98121;-77
2022/03/14 09:53:25;;;;;;;9.75;4.88;;;;;;;21.05;36.27;101975.75;20664602;28;97375;-80
2022/03/14 10:03:26;;;;;;;12.02;5.30;;;;;;;21.14;34.40;101978.84;20668227;28;98062;-77
2022/03/14 10:13:26;;;;;;;11.88;5.20;;;;;;;21.10;30.68;101965.84;20653673;28;97901;-76
2022/03/14 10:23:32;;;;;;;10.27;5.70;;;;;;;19.53;20.16;101966.34;20654306;28;97551;-75
2022/03/14 10:33:34;;;;;;;9.88;4.78;;;;;;;20.65;27.78;101967.22;20673081;28;97708;-75
2022/03/14 10:43:37;;;;;;;8.13;4.25;;;;;;;21.04;31.25;101962.66;20668198;27;97586;-79
2022/03/14 10:53:43;;;;;;;8.93;4.83;;;;;;;21.28;33.85;101960.53;20662278;28;97283;-77
2022/03/14 11:03:45;;;;;;;21.05;13.02;;;;;;;21.55;36.84;101960.00;20675321;27;97608;-78
2022/03/14 11:13:51;;;;;;;17.77;10.07;;;;;;;21.71;38.46;101947.69;20684425;27;97035;-81
2022/03/14 11:23:53;;;;;;;10.75;7.03;;;;;;;21.43;28.76;101933.38;20679902;28;99058;-79
2022/03/14 11:33:55;;;;;;;15.03;6.53;;;;;;;20.21;19.83;101922.91;20675121;28;97638;-77
2022/03/14 11:43:56;;;;;;;8.55;5.72;;;;;;;20.97;24.83;101913.88;20681378;27;97311;-76
2022/03/14 11:53:57;;;;;;;7.68;4.95;;;;;;;21.36;28.01;101902.16;20688507;27;98386;-76
2022/03/14 12:04:00;;;;;;;6.30;5.00;;;;;;;21.64;30.82;101905.94;20702832;27;97472;-79
2022/03/14 12:14:01;;;;;;;;;;;;;;;21.85;31.82;101903.88;20705459;28;100139;-81
2022/03/14 12:24:01;;;;;;;6.05;4.38;;;;;;;22.05;32.83;101895.69;20722119;28;97956;-80
2022/03/14 12:34:10;;;;;;;5.50;3.92;;;;;;;22.19;32.92;101896.69;20702355;28;97024;-79
2022/03/14 12:44:19;;;;;;;5.32;4.07;;;;;;;22.31;33.26;101881.94;20679433;28;98262;-79
2022/03/14 12:54:32;;;;;;;6.47;4.03;;;;;;;22.44;33.21;101882.94;20684891;28;96989;-78
2022/03/14 13:04:33;;;;;;;7.90;4.00;;;;;;;22.50;33.41;101869.38;20687174;27;97870;-78
2022/03/14 13:14:37;;;;;;;15.80;4.25;;;;;;;22.61;33.70;101874.03;20690946;27;97301;-80
2022/03/14 13:24:38;;;;;;;6.75;4.13;;;;;;;22.64;33.50;101872.97;20703349;28;97413;-80
2022/03/14 13:34:39;;;;;;;4.90;3.70;;;;;;;22.71;33.34;101871.69;20678115;28;101067;-77
2022/03/14 13:44:40;;;;;;;6.90;3.83;;;;;;;22.80;32.92;101886.97;20644104;28;99376;-78
2022/03/14 13:54:46;;;;;;;7.53;3.85;;;;;;;22.83;33.30;101878.00;20660426;28;98298;-78
2022/03/14 14:04:48;;;;;;;12.60;4.38;;;;;;;22.86;33.64;101873.41;20656555;27;99030;-77
2022/03/14 14:14:57;;;;;;;6.88;3.50;;;;;;;22.89;33.35;101885.56;20665864;28;102599;-78
2022/03/14 14:24:59;;;;;;;5.88;3.00;;;;;;;22.91;33.27;101875.75;20676847;27;99410;-77
2022/03/14 14:35:00;;;;;;;4.70;3.30;;;;;;;22.90;32.83;101883.75;20663473;28;100155;-78
2022/03/14 14:45:03;;;;;;;5.57;3.28;;;;;;;22.91;32.38;101875.75;20635414;27;100534;-77
2022/03/14 14:55:04;;;;;;;5.80;3.70;;;;;;;22.27;21.36;101868.06;20637261;27;101126;-79
2022/03/14 15:05:05;;;;;;;7.88;4.03;;;;;;;22.14;23.04;101860.03;20637272;27;98382;-77
2022/03/14 15:15:07;;;;;;;5.85;3.60;;;;;;;22.51;26.57;101852.59;20627899;28;98385;-77
2022/03/14 15:25:09;;;;;;;5.43;3.20;;;;;;;22.64;28.17;101850.09;20644218;28;99334;-78
2022/03/14 15:35:11;;;;;;;4.60;3.00;;;;;;;22.76;29.36;101856.41;20658822;28;98939;-80
2022/03/14 15:45:18;;;;;;;3.40;2.80;;;;;;;22.79;30.99;101852.72;20649570;27;100157;-82
2022/03/14 15:55:18;;;;;;;14.85;4.25;;;;;;;22.74;31.15;101845.09;20650781;28;100698;-76
2022/03/14 16:05:20;;;;;;;15.93;4.55;;;;;;;22.64;30.53;101858.00;20647727;27;98634;-75
2022/03/14 16:15:20;;;;;;;22.40;5.10;;;;;;;22.53;31.07;101873.63;20647321;28;97241;-75
2022/03/14 16:25:22;;;;;;;15.68;5.00;;;;;;;22.43;31.05;101875.13;20641057;28;96992;-75
2022/03/14 16:35:23;;;;;;;15.00;4.70;;;;;;;22.32;31.49;101888.91;20641470;28;97764;-75
2022/03/14 16:45:23;;;;;;;13.57;4.78;;;;;;;22.23;32.73;101892.94;20651237;28;97859;-75
2022/03/14 16:55:25;;;;;;;10.05;4.38;;;;;;;22.13;32.85;101903.19;20642408;28;99403;-76
2022/03/14 17:05:26;;;;;;;14.70;4.63;;;;;;;22.00;33.69;101908.31;20695546;28;96921;-76
2022/03/14 17:15:28;;;;;;;11.35;4.05;;;;;;;21.89;33.12;101914.19;20680409;28;98003;-77
2022/03/14 17:25:29;;;;;;;11.32;4.72;;;;;;;21.84;33.22;101936.50;20651472;28;97861;-75
2022/03/14 17:35:30;;;;;;;7.93;3.90;;;;;;;21.73;33.37;101947.63;20642379;27;98100;-76
2022/03/14 17:45:31;;;;;;;7.70;3.95;;;;;;;21.69;33.49;101959.25;20652662;27;97807;-76
2022/03/14 17:55:31;;;;;;;6.78;3.45;;;;;;;21.65;33.55;101976.19;20651960;27;96949;-76
2022/03/14 18:05:32;;;;;;;10.43;4.38;;;;;;;21.62;33.56;101986.88;20659600;28;97889;-76
2022/03/14 18:15:34;;;;;;;10.57;3.80;;;;;;;21.60;33.67;101971.16;20626865;28;100808;-75
2022/03/14 18:25:34;;;;;;;11.75;4.40;;;;;;;21.69;34.17;101977.72;20632297;28;101021;-76
2022/03/14 18:35:39;;;;;;;10.60;4.00;;;;;;;21.69;34.33;101980.34;20641059;28;98394;-75
2022/03/14 18:45:39;;;;;;;8.15;3.88;;;;;;;21.67;34.89;101996.25;20731737;27;98145;-76
2022/03/14 18:55:40;;;;;;;7.80;4.00;;;;;;;21.68;34.83;101995.31;20713323;27;97146;-77
2022/03/14 19:05:41;;;;;;;10.10;4.18;;;;;;;21.59;35.19;101991.41;20746020;27;97161;-82
2022/03/14 19:15:43;;;;;;;9.88;4.80;;;;;;;21.53;35.66;102015.44;20742112;27;98564;-80
2022/03/14 19:25:46;;;;;;;11.02;4.72;;;;;;;21.51;35.50;102038.38;20745895;27;97656;-80
2022/03/14 19:35:47;;;;;;;12.45;5.85;;;;;;;21.57;35.74;102045.16;20739758;27;97005;-79
2022/03/14 19:45:50;;;;;;;9.68;5.32;;;;;;;21.48;35.77;102059.59;20738290;27;97635;-80
2022/03/14 19:55:52;;;;;;;12.07;6.50;;;;;;;21.43;35.86;102046.69;20743820;27;102685;-79
2022/03/14 20:05:56;;;;;;;12.05;6.60;;;;;;;21.36;36.00;102073.41;20755885;27;96898;-78
2022/03/14 20:15:57;;;;;;;12.13;6.18;;;;;;;21.36;35.64;102103.28;20737323;27;97692;-78
2022/03/14 20:26:00;;;;;;;11.07;5.75;;;;;;;21.32;35.95;102087.69;20729110;27;100406;-78
2022/03/14 20:36:02;;;;;;;12.73;5.72;;;;;;;21.23;36.11;102095.13;20720960;27;97912;-78
2022/03/14 20:46:04;;;;;;;9.90;6.15;;;;;;;21.23;36.34;102086.38;20732055;27;97478;-79
2022/03/14 20:56:05;;;;;;;11.10;6.00;;;;;;;21.22;36.52;102111.03;20718386;27;100548;-79
2022/03/14 21:06:06;;;;;;;15.25;6.30;;;;;;;21.17;36.83;102105.13;20718568;27;98356;-79
2022/03/14 21:16:06;;;;;;;10.75;6.00;;;;;;;21.17;36.73;102095.44;20741196;27;97379;-79
2022/03/14 21:26:07;;;;;;;10.57;6.47;;;;;;;21.11;37.13;102101.03;20754823;27;102025;-79
2022/03/14 21:36:08;;;;;;;10.30;5.93;;;;;;;21.07;37.34;102083.69;20731801;27;97626;-77
2022/03/14 21:46:09;;;;;;;10.05;6.15;;;;;;;20.99;37.68;102110.38;20750289;27;100147;-78
2022/03/14 21:56:10;;;;;;;11.20;6.40;;;;;;;20.98;37.41;102119.19;20739164;27;97690;-77
2022/03/14 22:06:11;;;;;;;11.65;6.15;;;;;;;20.90;37.58;102127.47;20748069;27;97307;-77
2022/03/14 22:16:12;;;;;;;9.93;5.60;;;;;;;20.91;37.62;102120.41;20739603;27;98110;-77
2022/03/14 22:26:13;;;;;;;11.70;6.38;;;;;;;20.88;37.60;102115.31;20713164;27;102317;-79
2022/03/14 22:36:15;;;;;;;10.98;6.35;;;;;;;20.85;37.48;102113.69;20734089;27;97471;-76
2022/03/14 22:46:16;;;;;;;11.48;6.63;;;;;;;20.84;37.58;102108.50;20676522;27;97962;-76
2022/03/14 22:56:16;;;;;;;11.25;6.45;;;;;;;20.81;37.85;102092.84;20643660;28;97116;-76
2022/03/14 23:06:18;;;;;;;9.50;6.07;;;;;;;20.76;37.99;102095.69;20642902;28;98528;-76
2022/03/14 23:16:33;;;;;;;10.65;6.75;;;;;;;20.73;37.63;102099.34;20628021;28;97368;-75
2022/03/14 23:26:40;;;;;;;11.10;6.70;;;;;;;20.69;38.01;102099.53;20645043;28;98196;-76
2022/03/14 23:36:41;;;;;;;12.43;6.57;;;;;;;20.70;37.52;102104.72;20643405;28;99012;-76
2022/03/14 23:46:42;;;;;;;11.68;6.40;;;;;;;20.69;38.16;102105.66;20638605;28;97463;-77
2022/03/14 23:56:42;;;;;;;9.18;6.15;;;;;;;20.63;37.87;102104.16;20643256;28;99127;-76
